sensor_id;sensor_type;location;lat;lon;timestamp;P1;durP1;ratioP1;P2;durP2;ratioP2
24325;SDS011;12448;45.532;5.290;2023-07-02T00:02:20;5.80;;;4.75;;
24325;SDS011;12448;45.532;5.290;2023-07-02T00:04:46;9.82;;;5.20;;
24325;SDS011;12448;45.532;5.290;2023-07-02T00:07:12;7.03;;;4.50;;
24325;SDS011;12448;45.532;5.290;2023-07-02T00:09:38;7.30;;;4.43;;
24325;SDS011;12448;45.532;5.290;2023-07-02T00:12:04;6.47;;;4.75;;
24325;SDS011;12448;45.532;5.290;2023-07-02T00:14:29;7.85;;;4.35;;
24325;SDS011;12448;45.532;5.290;2023-07-02T00:16:55;7.07;;;4.43;;
24325;SDS011;12448;45.532;5.290;2023-07-02T00:19:21;8.38;;;4.72;;
24325;SDS011;12448;45.532;5.290;2023-07-02T00:21:47;9.05;;;4.07;;
24325;SDS011;12448;45.532;5.290;2023-07-02T00:24:13;11.98;;;4.40;;
24325;SDS011;12448;45.532;5.290;2023-07-02T00:26:41;6.57;;;3.65;;
24325;SDS011;12448;45.532;5.290;2023-07-02T00:29:06;6.55;;;3.55;;
24325;SDS011;12448;45.532;5.290;2023-07-02T00:31:34;8.95;;;4.90;;
24325;SDS011;12448;45.532;5.290;2023-07-02T00:34:00;14.90;;;4.72;;
24325;SDS011;12448;45.532;5.290;2023-07-02T00:36:27;15.15;;;5.15;;
24325;SDS011;12448;45.532;5.290;2023-07-02T00:38:53;15.27;;;5.47;;
24325;SDS011;12448;45.532;5.290;2023-07-02T00:41:22;9.77;;;4.53;;
24325;SDS011;12448;45.532;5.290;2023-07-02T00:43:48;8.70;;;6.38;;
24325;SDS011;12448;45.532;5.290;2023-07-02T00:46:14;12.73;;;5.63;;
24325;SDS011;12448;45.532;5.290;2023-07-02T00:53:57;8.02;;;4.90;;
24325;SDS011;12448;45.532;5.290;2023-07-02T00:56:25;6.25;;;4.95;;
24325;SDS011;12448;45.532;5.290;2023-07-02T00:58:52;7.88;;;4.88;;
24325;SDS011;12448;45.532;5.290;2023-07-02T01:01:20;13.98;;;5.72;;
24325;SDS011;12448;45.532;5.290;2023-07-02T01:04:06;18.40;;;8.80;;
24325;SDS011;12448;45.532;5.290;2023-07-02T01:06:37;20.35;;;9.27;;
24325;SDS011;12448;45.532;5.290;2023-07-02T01:09:06;18.05;;;9.70;;
24325;SDS011;12448;45.532;5.290;2023-07-02T01:14:01;21.58;;;9.55;;
24325;SDS011;12448;45.532;5.290;2023-07-02T01:16:30;19.45;;;10.00;;
24325;SDS011;12448;45.532;5.290;2023-07-02T01:18:58;16.73;;;9.85;;
24325;SDS011;12448;45.532;5.290;2023-07-02T01:21:28;20.42;;;9.55;;
24325;SDS011;12448;45.532;5.290;2023-07-02T01:23:54;15.70;;;9.35;;
24325;SDS011;12448;45.532;5.290;2023-07-02T01:26:19;19.95;;;10.55;;
24325;SDS011;12448;45.532;5.290;2023-07-02T01:28:45;15.60;;;8.70;;
24325;SDS011;12448;45.532;5.290;2023-07-02T01:31:11;16.20;;;9.68;;
24325;SDS011;12448;45.532;5.290;2023-07-02T01:33:36;17.13;;;9.32;;
24325;SDS011;12448;45.532;5.290;2023-07-02T01:36:02;17.60;;;8.88;;
24325;SDS011;12448;45.532;5.290;2023-07-02T01:38:28;22.05;;;11.68;;
24325;SDS011;12448;45.532;5.290;2023-07-02T01:40:53;21.13;;;12.50;;
24325;SDS011;12448;45.532;5.290;2023-07-02T01:43:19;18.80;;;12.07;;
24325;SDS011;12448;45.532;5.290;2023-07-02T01:45:45;24.05;;;11.50;;
24325;SDS011;12448;45.532;5.290;2023-07-02T01:48:11;19.75;;;11.88;;
24325;SDS011;12448;45.532;5.290;2023-07-02T01:50:36;19.23;;;11.27;;
24325;SDS011;12448;45.532;5.290;2023-07-02T01:53:02;20.38;;;11.27;;
24325;SDS011;12448;45.532;5.290;2023-07-02T01:55:28;25.08;;;11.10;;
24325;SDS011;12448;45.532;5.290;2023-07-02T01:57:54;26.35;;;10.82;;
24325;SDS011;12448;45.532;5.290;2023-07-02T02:00:19;23.17;;;11.27;;
24325;SDS011;12448;45.532;5.290;2023-07-02T02:02:45;22.35;;;11.10;;
24325;SDS011;12448;45.532;5.290;2023-07-02T02:05:11;27.33;;;12.55;;
24325;SDS011;12448;45.532;5.290;2023-07-02T02:07:37;25.80;;;13.20;;
24325;SDS011;12448;45.532;5.290;2023-07-02T02:10:03;25.73;;;13.20;;
24325;SDS011;12448;45.532;5.290;2023-07-02T02:12:29;28.92;;;14.30;;
24325;SDS011;12448;45.532;5.290;2023-07-02T02:14:56;26.27;;;13.68;;
24325;SDS011;12448;45.532;5.290;2023-07-02T02:21:18;36.95;;;16.23;;
24325;SDS011;12448;45.532;5.290;2023-07-02T02:23:47;27.80;;;16.83;;
24325;SDS011;12448;45.532;5.290;2023-07-02T02:26:14;24.50;;;17.10;;
24325;SDS011;12448;45.532;5.290;2023-07-02T02:32:22;29.80;;;17.25;;
24325;SDS011;12448;45.532;5.290;2023-07-02T02:34:58;29.02;;;16.77;;
24325;SDS011;12448;45.532;5.290;2023-07-02T02:37:24;26.73;;;17.50;;
24325;SDS011;12448;45.532;5.290;2023-07-02T02:39:49;27.83;;;17.08;;
24325;SDS011;12448;45.532;5.290;2023-07-02T02:42:15;30.48;;;17.27;;
24325;SDS011;12448;45.532;5.290;2023-07-02T02:44:41;30.15;;;17.92;;
24325;SDS011;12448;45.532;5.290;2023-07-02T02:47:07;31.77;;;16.88;;
24325;SDS011;12448;45.532;5.290;2023-07-02T02:49:32;33.72;;;18.73;;
24325;SDS011;12448;45.532;5.290;2023-07-02T02:51:58;36.35;;;19.00;;
24325;SDS011;12448;45.532;5.290;2023-07-02T02:54:23;35.80;;;19.33;;
24325;SDS011;12448;45.532;5.290;2023-07-02T02:56:49;35.75;;;19.58;;
24325;SDS011;12448;45.532;5.290;2023-07-02T02:59:15;35.13;;;20.00;;
24325;SDS011;12448;45.532;5.290;2023-07-02T03:01:40;36.38;;;19.65;;
24325;SDS011;12448;45.532;5.290;2023-07-02T03:04:06;30.00;;;19.55;;
24325;SDS011;12448;45.532;5.290;2023-07-02T03:06:33;37.80;;;20.63;;
24325;SDS011;12448;45.532;5.290;2023-07-02T03:09:19;31.88;;;19.58;;
24325;SDS011;12448;45.532;5.290;2023-07-02T03:11:46;34.75;;;20.40;;
24325;SDS011;12448;45.532;5.290;2023-07-02T03:14:12;32.15;;;19.42;;
24325;SDS011;12448;45.532;5.290;2023-07-02T03:16:40;33.00;;;19.25;;
24325;SDS011;12448;45.532;5.290;2023-07-02T03:19:11;32.60;;;18.30;;
24325;SDS011;12448;45.532;5.290;2023-07-02T03:22:20;31.67;;;17.95;;
24325;SDS011;12448;45.532;5.290;2023-07-02T03:24:46;33.85;;;19.25;;
24325;SDS011;12448;45.532;5.290;2023-07-02T03:27:12;33.97;;;18.77;;
24325;SDS011;12448;45.532;5.290;2023-07-02T03:29:37;32.88;;;18.70;;
24325;SDS011;12448;45.532;5.290;2023-07-02T03:32:40;30.17;;;18.50;;
24325;SDS011;12448;45.532;5.290;2023-07-02T03:38:56;30.58;;;19.42;;
24325;SDS011;12448;45.532;5.290;2023-07-02T03:41:25;32.45;;;19.10;;
24325;SDS011;12448;45.532;5.290;2023-07-02T03:43:51;36.92;;;19.58;;
24325;SDS011;12448;45.532;5.290;2023-07-02T03:46:17;29.35;;;18.27;;
24325;SDS011;12448;45.532;5.290;2023-07-02T03:48:42;34.63;;;19.73;;
24325;SDS011;12448;45.532;5.290;2023-07-02T03:51:08;39.13;;;19.33;;
24325;SDS011;12448;45.532;5.290;2023-07-02T03:53:34;35.08;;;19.63;;
24325;SDS011;12448;45.532;5.290;2023-07-02T03:56:05;31.10;;;18.25;;
24325;SDS011;12448;45.532;5.290;2023-07-02T03:58:30;38.28;;;18.80;;
24325;SDS011;12448;45.532;5.290;2023-07-02T04:00:56;31.92;;;18.17;;
24325;SDS011;12448;45.532;5.290;2023-07-02T04:03:22;35.08;;;18.58;;
24325;SDS011;12448;45.532;5.290;2023-07-02T04:06:00;30.90;;;18.10;;
24325;SDS011;12448;45.532;5.290;2023-07-02T04:08:26;28.25;;;17.90;;
24325;SDS011;12448;45.532;5.290;2023-07-02T04:10:53;35.28;;;18.92;;
24325;SDS011;12448;45.532;5.290;2023-07-02T04:13:19;31.88;;;18.38;;
24325;SDS011;12448;45.532;5.290;2023-07-02T04:15:45;31.70;;;17.52;;
24325;SDS011;12448;45.532;5.290;2023-07-02T04:18:11;28.17;;;18.48;;
24325;SDS011;12448;45.532;5.290;2023-07-02T04:20:36;26.52;;;17.52;;
24325;SDS011;12448;45.532;5.290;2023-07-02T04:23:05;27.08;;;15.80;;
24325;SDS011;12448;45.532;5.290;2023-07-02T04:25:31;29.73;;;16.80;;
24325;SDS011;12448;45.532;5.290;2023-07-02T04:27:57;32.80;;;16.65;;
24325;SDS011;12448;45.532;5.290;2023-07-02T04:30:23;29.10;;;16.48;;
24325;SDS011;12448;45.532;5.290;2023-07-02T04:33:06;30.85;;;15.90;;
24325;SDS011;12448;45.532;5.290;2023-07-02T04:35:40;23.08;;;16.33;;
24325;SDS011;12448;45.532;5.290;2023-07-02T04:38:09;25.27;;;16.50;;
24325;SDS011;12448;45.532;5.290;2023-07-02T04:40:35;29.17;;;16.33;;
24325;SDS011;12448;45.532;5.290;2023-07-02T04:45:37;23.88;;;15.32;;
24325;SDS011;12448;45.532;5.290;2023-07-02T04:48:09;25.50;;;15.63;;
24325;SDS011;12448;45.532;5.290;2023-07-02T04:50:35;26.33;;;16.02;;
24325;SDS011;12448;45.532;5.290;2023-07-02T04:53:00;23.02;;;15.30;;
24325;SDS011;12448;45.532;5.290;2023-07-02T04:55:26;26.38;;;14.68;;
24325;SDS011;12448;45.532;5.290;2023-07-02T04:57:52;21.35;;;14.98;;
24325;SDS011;12448;45.532;5.290;2023-07-02T05:00:18;25.35;;;14.63;;
24325;SDS011;12448;45.532;5.290;2023-07-02T05:02:44;26.63;;;15.27;;
24325;SDS011;12448;45.532;5.290;2023-07-02T05:05:09;25.05;;;14.73;;
24325;SDS011;12448;45.532;5.290;2023-07-02T05:07:35;28.60;;;15.77;;
24325;SDS011;12448;45.532;5.290;2023-07-02T05:10:01;26.77;;;15.77;;
24325;SDS011;12448;45.532;5.290;2023-07-02T05:12:26;26.60;;;16.27;;
24325;SDS011;12448;45.532;5.290;2023-07-02T05:14:58;29.83;;;17.15;;
24325;SDS011;12448;45.532;5.290;2023-07-02T05:17:23;27.17;;;16.33;;
24325;SDS011;12448;45.532;5.290;2023-07-02T05:19:49;30.27;;;17.73;;
24325;SDS011;12448;45.532;5.290;2023-07-02T05:22:15;30.77;;;16.75;;
24325;SDS011;12448;45.532;5.290;2023-07-02T05:24:40;29.70;;;17.42;;
24325;SDS011;12448;45.532;5.290;2023-07-02T05:27:08;26.70;;;16.95;;
24325;SDS011;12448;45.532;5.290;2023-07-02T05:29:34;27.30;;;17.15;;
24325;SDS011;12448;45.532;5.290;2023-07-02T05:32:00;28.88;;;17.80;;
24325;SDS011;12448;45.532;5.290;2023-07-02T05:34:35;32.75;;;17.95;;
24325;SDS011;12448;45.532;5.290;2023-07-02T05:37:10;32.38;;;17.17;;
24325;SDS011;12448;45.532;5.290;2023-07-02T05:39:36;36.70;;;17.73;;
24325;SDS011;12448;45.532;5.290;2023-07-02T05:42:02;29.65;;;18.45;;
24325;SDS011;12448;45.532;5.290;2023-07-02T05:44:31;34.72;;;18.40;;
24325;SDS011;12448;45.532;5.290;2023-07-02T05:46:57;32.40;;;17.90;;
24325;SDS011;12448;45.532;5.290;2023-07-02T05:49:22;33.22;;;17.95;;
24325;SDS011;12448;45.532;5.290;2023-07-02T05:51:48;32.72;;;16.92;;
24325;SDS011;12448;45.532;5.290;2023-07-02T05:54:14;27.02;;;16.70;;
24325;SDS011;12448;45.532;5.290;2023-07-02T05:56:40;27.83;;;16.48;;
24325;SDS011;12448;45.532;5.290;2023-07-02T05:59:05;27.45;;;17.63;;
24325;SDS011;12448;45.532;5.290;2023-07-02T06:01:43;27.77;;;17.45;;
24325;SDS011;12448;45.532;5.290;2023-07-02T06:04:09;42.20;;;19.33;;
24325;SDS011;12448;45.532;5.290;2023-07-02T06:06:34;35.03;;;19.70;;
24325;SDS011;12448;45.532;5.290;2023-07-02T06:09:00;32.20;;;20.58;;
24325;SDS011;12448;45.532;5.290;2023-07-02T06:11:25;38.75;;;20.27;;
24325;SDS011;12448;45.532;5.290;2023-07-02T06:13:51;32.42;;;19.83;;
24325;SDS011;12448;45.532;5.290;2023-07-02T06:16:16;40.83;;;20.50;;
24325;SDS011;12448;45.532;5.290;2023-07-02T06:18:42;36.85;;;20.38;;
24325;SDS011;12448;45.532;5.290;2023-07-02T06:21:08;31.17;;;19.98;;
24325;SDS011;12448;45.532;5.290;2023-07-02T06:23:42;33.10;;;19.83;;
24325;SDS011;12448;45.532;5.290;2023-07-02T06:26:09;34.95;;;21.17;;
24325;SDS011;12448;45.532;5.290;2023-07-02T06:28:34;35.83;;;22.33;;
24325;SDS011;12448;45.532;5.290;2023-07-02T06:31:00;34.08;;;21.02;;
24325;SDS011;12448;45.532;5.290;2023-07-02T06:33:26;34.88;;;20.75;;
24325;SDS011;12448;45.532;5.290;2023-07-02T06:35:51;39.53;;;22.85;;
24325;SDS011;12448;45.532;5.290;2023-07-02T06:38:17;44.13;;;22.23;;
24325;SDS011;12448;45.532;5.290;2023-07-02T06:40:43;34.90;;;21.75;;
24325;SDS011;12448;45.532;5.290;2023-07-02T06:43:08;31.85;;;18.50;;
24325;SDS011;12448;45.532;5.290;2023-07-02T06:45:34;29.70;;;15.30;;
24325;SDS011;12448;45.532;5.290;2023-07-02T06:48:00;15.23;;;9.77;;
24325;SDS011;12448;45.532;5.290;2023-07-02T06:50:26;20.45;;;13.45;;
24325;SDS011;12448;45.532;5.290;2023-07-02T06:52:51;21.73;;;13.13;;
24325;SDS011;12448;45.532;5.290;2023-07-02T06:55:17;21.05;;;13.43;;
24325;SDS011;12448;45.532;5.290;2023-07-02T06:57:46;20.10;;;12.38;;
24325;SDS011;12448;45.532;5.290;2023-07-02T07:07:12;16.90;;;11.52;;
24325;SDS011;12448;45.532;5.290;2023-07-02T07:10:28;19.95;;;12.60;;
24325;SDS011;12448;45.532;5.290;2023-07-02T07:13:31;23.98;;;13.20;;
24325;SDS011;12448;45.532;5.290;2023-07-02T07:20:01;18.80;;;12.65;;
24325;SDS011;12448;45.532;5.290;2023-07-02T07:25:58;21.70;;;13.70;;
24325;SDS011;12448;45.532;5.290;2023-07-02T07:28:26;22.88;;;14.38;;
24325;SDS011;12448;45.532;5.290;2023-07-02T07:30:52;21.83;;;14.07;;
24325;SDS011;12448;45.532;5.290;2023-07-02T07:33:18;22.42;;;13.35;;
24325;SDS011;12448;45.532;5.290;2023-07-02T07:35:44;28.10;;;13.98;;
24325;SDS011;12448;45.532;5.290;2023-07-02T07:38:09;23.55;;;13.40;;
24325;SDS011;12448;45.532;5.290;2023-07-02T07:40:35;26.67;;;15.13;;
24325;SDS011;12448;45.532;5.290;2023-07-02T07:43:01;27.20;;;15.27;;
24325;SDS011;12448;45.532;5.290;2023-07-02T07:45:26;29.08;;;16.05;;
24325;SDS011;12448;45.532;5.290;2023-07-02T07:47:52;26.63;;;15.40;;
24325;SDS011;12448;45.532;5.290;2023-07-02T07:50:31;25.90;;;14.98;;
24325;SDS011;12448;45.532;5.290;2023-07-02T07:53:03;24.20;;;15.50;;
24325;SDS011;12448;45.532;5.290;2023-07-02T07:55:29;23.63;;;13.93;;
24325;SDS011;12448;45.532;5.290;2023-07-02T07:57:54;22.77;;;14.65;;
24325;SDS011;12448;45.532;5.290;2023-07-02T08:00:20;24.13;;;13.82;;
24325;SDS011;12448;45.532;5.290;2023-07-02T08:02:46;22.90;;;14.23;;
24325;SDS011;12448;45.532;5.290;2023-07-02T08:05:12;22.35;;;13.00;;
24325;SDS011;12448;45.532;5.290;2023-07-02T08:07:38;23.77;;;13.02;;
24325;SDS011;12448;45.532;5.290;2023-07-02T08:10:05;23.67;;;13.15;;
24325;SDS011;12448;45.532;5.290;2023-07-02T08:12:33;22.15;;;13.65;;
24325;SDS011;12448;45.532;5.290;2023-07-02T08:14:59;22.70;;;12.88;;
24325;SDS011;12448;45.532;5.290;2023-07-02T08:17:28;20.15;;;13.18;;
24325;SDS011;12448;45.532;5.290;2023-07-02T08:19:55;23.50;;;12.82;;
24325;SDS011;12448;45.532;5.290;2023-07-02T08:22:22;21.58;;;13.23;;
24325;SDS011;12448;45.532;5.290;2023-07-02T08:24:47;20.60;;;13.05;;
24325;SDS011;12448;45.532;5.290;2023-07-02T08:27:14;19.52;;;12.25;;
24325;SDS011;12448;45.532;5.290;2023-07-02T08:29:43;19.13;;;12.18;;
24325;SDS011;12448;45.532;5.290;2023-07-02T08:32:10;19.45;;;12.90;;
24325;SDS011;12448;45.532;5.290;2023-07-02T08:34:35;23.67;;;13.73;;
24325;SDS011;12448;45.532;5.290;2023-07-02T08:37:01;20.83;;;13.10;;
24325;SDS011;12448;45.532;5.290;2023-07-02T08:39:27;23.75;;;14.20;;
24325;SDS011;12448;45.532;5.290;2023-07-02T08:41:52;23.58;;;13.82;;
24325;SDS011;12448;45.532;5.290;2023-07-02T08:44:19;22.10;;;13.45;;
24325;SDS011;12448;45.532;5.290;2023-07-02T08:46:46;25.80;;;15.43;;
24325;SDS011;12448;45.532;5.290;2023-07-02T08:49:15;25.35;;;16.50;;
24325;SDS011;12448;45.532;5.290;2023-07-02T08:51:42;27.27;;;16.00;;
24325;SDS011;12448;45.532;5.290;2023-07-02T08:54:10;25.77;;;17.42;;
24325;SDS011;12448;45.532;5.290;2023-07-02T08:56:35;25.58;;;17.77;;
24325;SDS011;12448;45.532;5.290;2023-07-02T08:59:01;26.85;;;16.88;;
24325;SDS011;12448;45.532;5.290;2023-07-02T09:01:27;23.83;;;14.98;;
24325;SDS011;12448;45.532;5.290;2023-07-02T09:03:57;22.83;;;15.57;;
24325;SDS011;12448;45.532;5.290;2023-07-02T09:06:37;21.00;;;12.10;;
24325;SDS011;12448;45.532;5.290;2023-07-02T09:09:03;16.27;;;11.10;;
24325;SDS011;12448;45.532;5.290;2023-07-02T09:11:30;17.92;;;10.82;;
24325;SDS011;12448;45.532;5.290;2023-07-02T09:14:04;13.88;;;9.88;;
24325;SDS011;12448;45.532;5.290;2023-07-02T09:17:00;12.02;;;8.68;;
24325;SDS011;12448;45.532;5.290;2023-07-02T09:19:36;16.67;;;11.05;;
24325;SDS011;12448;45.532;5.290;2023-07-02T09:22:13;16.52;;;11.52;;
24325;SDS011;12448;45.532;5.290;2023-07-02T09:25:02;15.18;;;10.60;;
24325;SDS011;12448;45.532;5.290;2023-07-02T09:27:36;15.60;;;10.63;;
24325;SDS011;12448;45.532;5.290;2023-07-02T09:32:38;15.63;;;9.65;;
24325;SDS011;12448;45.532;5.290;2023-07-02T09:35:04;18.13;;;10.07;;
24325;SDS011;12448;45.532;5.290;2023-07-02T09:37:30;16.27;;;10.88;;
24325;SDS011;12448;45.532;5.290;2023-07-02T09:39:56;18.27;;;12.10;;
24325;SDS011;12448;45.532;5.290;2023-07-02T09:42:22;16.50;;;10.20;;
24325;SDS011;12448;45.532;5.290;2023-07-02T09:44:51;15.82;;;11.02;;
24325;SDS011;12448;45.532;5.290;2023-07-02T09:47:19;17.10;;;11.23;;
24325;SDS011;12448;45.532;5.290;2023-07-02T09:49:52;15.68;;;10.65;;
24325;SDS011;12448;45.532;5.290;2023-07-02T09:52:23;18.02;;;11.27;;
24325;SDS011;12448;45.532;5.290;2023-07-02T09:54:49;17.90;;;11.07;;
24325;SDS011;12448;45.532;5.290;2023-07-02T09:57:14;18.23;;;11.85;;
24325;SDS011;12448;45.532;5.290;2023-07-02T09:59:40;19.63;;;11.93;;
24325;SDS011;12448;45.532;5.290;2023-07-02T10:02:08;18.25;;;11.88;;
24325;SDS011;12448;45.532;5.290;2023-07-02T10:04:41;16.70;;;10.73;;
24325;SDS011;12448;45.532;5.290;2023-07-02T10:07:08;18.88;;;11.30;;
24325;SDS011;12448;45.532;5.290;2023-07-02T10:09:36;20.35;;;11.38;;
24325;SDS011;12448;45.532;5.290;2023-07-02T10:12:16;14.27;;;10.93;;
24325;SDS011;12448;45.532;5.290;2023-07-02T10:14:43;15.85;;;10.57;;
24325;SDS011;12448;45.532;5.290;2023-07-02T10:19:56;11.93;;;8.30;;
24325;SDS011;12448;45.532;5.290;2023-07-02T10:22:26;14.82;;;8.70;;
24325;SDS011;12448;45.532;5.290;2023-07-02T10:25:04;14.77;;;8.75;;
24325;SDS011;12448;45.532;5.290;2023-07-02T10:27:34;15.70;;;8.65;;
24325;SDS011;12448;45.532;5.290;2023-07-02T10:30:04;13.57;;;8.68;;
24325;SDS011;12448;45.532;5.290;2023-07-02T10:32:31;12.32;;;7.72;;
24325;SDS011;12448;45.532;5.290;2023-07-02T10:34:59;11.43;;;7.88;;
24325;SDS011;12448;45.532;5.290;2023-07-02T10:37:34;14.07;;;8.23;;
24325;SDS011;12448;45.532;5.290;2023-07-02T10:40:06;13.25;;;8.43;;
24325;SDS011;12448;45.532;5.290;2023-07-02T10:42:32;11.68;;;8.50;;
24325;SDS011;12448;45.532;5.290;2023-07-02T10:44:59;14.18;;;8.30;;
24325;SDS011;12448;45.532;5.290;2023-07-02T10:47:25;11.38;;;8.13;;
24325;SDS011;12448;45.532;5.290;2023-07-02T10:49:50;11.90;;;8.68;;
24325;SDS011;12448;45.532;5.290;2023-07-02T10:52:16;12.52;;;8.82;;
24325;SDS011;12448;45.532;5.290;2023-07-02T10:54:43;16.67;;;8.98;;
24325;SDS011;12448;45.532;5.290;2023-07-02T10:57:12;13.73;;;9.07;;
24325;SDS011;12448;45.532;5.290;2023-07-02T10:59:38;13.05;;;8.98;;
24325;SDS011;12448;45.532;5.290;2023-07-02T11:02:04;14.25;;;9.48;;
24325;SDS011;12448;45.532;5.290;2023-07-02T11:04:31;13.10;;;8.75;;
24325;SDS011;12448;45.532;5.290;2023-07-02T11:06:59;13.63;;;9.77;;
24325;SDS011;12448;45.532;5.290;2023-07-02T11:09:28;14.98;;;9.25;;
24325;SDS011;12448;45.532;5.290;2023-07-02T11:11:55;14.13;;;9.23;;
24325;SDS011;12448;45.532;5.290;2023-07-02T11:14:31;14.15;;;9.85;;
24325;SDS011;12448;45.532;5.290;2023-07-02T11:16:59;12.98;;;9.43;;
24325;SDS011;12448;45.532;5.290;2023-07-02T11:19:28;12.40;;;9.43;;
24325;SDS011;12448;45.532;5.290;2023-07-02T11:22:04;14.55;;;9.70;;
24325;SDS011;12448;45.532;5.290;2023-07-02T11:24:53;14.00;;;9.57;;
24325;SDS011;12448;45.532;5.290;2023-07-02T11:27:22;14.68;;;9.30;;
24325;SDS011;12448;45.532;5.290;2023-07-02T11:29:48;13.68;;;9.13;;
24325;SDS011;12448;45.532;5.290;2023-07-02T11:32:24;16.05;;;10.07;;
24325;SDS011;12448;45.532;5.290;2023-07-02T11:34:54;13.15;;;8.60;;
24325;SDS011;12448;45.532;5.290;2023-07-02T11:37:20;13.38;;;8.48;;
24325;SDS011;12448;45.532;5.290;2023-07-02T11:39:45;15.60;;;8.98;;
24325;SDS011;12448;45.532;5.290;2023-07-02T11:42:12;13.50;;;9.05;;
24325;SDS011;12448;45.532;5.290;2023-07-02T11:44:37;13.85;;;8.52;;
24325;SDS011;12448;45.532;5.290;2023-07-02T11:47:03;14.98;;;8.80;;
24325;SDS011;12448;45.532;5.290;2023-07-02T11:49:29;12.93;;;9.20;;
24325;SDS011;12448;45.532;5.290;2023-07-02T11:51:55;15.07;;;9.18;;
24325;SDS011;12448;45.532;5.290;2023-07-02T11:54:21;12.60;;;9.13;;
24325;SDS011;12448;45.532;5.290;2023-07-02T11:56:49;14.55;;;9.40;;
24325;SDS011;12448;45.532;5.290;2023-07-02T11:59:15;13.60;;;9.15;;
24325;SDS011;12448;45.532;5.290;2023-07-02T12:05:16;12.05;;;7.97;;
24325;SDS011;12448;45.532;5.290;2023-07-02T12:07:42;13.05;;;8.80;;
24325;SDS011;12448;45.532;5.290;2023-07-02T12:10:10;13.27;;;8.65;;
24325;SDS011;12448;45.532;5.290;2023-07-02T12:12:36;12.00;;;8.55;;
24325;SDS011;12448;45.532;5.290;2023-07-02T12:15:02;13.40;;;8.98;;
24325;SDS011;12448;45.532;5.290;2023-07-02T12:17:28;11.57;;;7.70;;
24325;SDS011;12448;45.532;5.290;2023-07-02T12:19:54;12.35;;;8.45;;
24325;SDS011;12448;45.532;5.290;2023-07-02T12:22:23;11.88;;;7.85;;
24325;SDS011;12448;45.532;5.290;2023-07-02T12:24:49;13.35;;;8.55;;
24325;SDS011;12448;45.532;5.290;2023-07-02T12:27:21;11.05;;;7.53;;
24325;SDS011;12448;45.532;5.290;2023-07-02T12:29:57;11.77;;;7.65;;
24325;SDS011;12448;45.532;5.290;2023-07-02T12:32:23;9.55;;;7.10;;
24325;SDS011;12448;45.532;5.290;2023-07-02T12:35:01;11.60;;;7.22;;
24325;SDS011;12448;45.532;5.290;2023-07-02T12:37:26;15.40;;;7.82;;
24325;SDS011;12448;45.532;5.290;2023-07-02T12:39:58;11.55;;;7.55;;
24325;SDS011;12448;45.532;5.290;2023-07-02T12:42:23;10.48;;;7.53;;
24325;SDS011;12448;45.532;5.290;2023-07-02T12:44:49;10.10;;;7.35;;
24325;SDS011;12448;45.532;5.290;2023-07-02T12:47:14;10.40;;;7.32;;
24325;SDS011;12448;45.532;5.290;2023-07-02T12:49:40;10.57;;;6.57;;
24325;SDS011;12448;45.532;5.290;2023-07-02T12:52:06;13.98;;;6.35;;
24325;SDS011;12448;45.532;5.290;2023-07-02T12:54:32;9.68;;;5.75;;
24325;SDS011;12448;45.532;5.290;2023-07-02T12:56:57;7.60;;;5.18;;
24325;SDS011;12448;45.532;5.290;2023-07-02T12:59:23;7.78;;;5.10;;
24325;SDS011;12448;45.532;5.290;2023-07-02T13:01:51;8.68;;;5.22;;
24325;SDS011;12448;45.532;5.290;2023-07-02T13:04:23;8.07;;;5.72;;
24325;SDS011;12448;45.532;5.290;2023-07-02T13:06:49;8.55;;;5.65;;
24325;SDS011;12448;45.532;5.290;2023-07-02T13:09:20;8.25;;;5.45;;
24325;SDS011;12448;45.532;5.290;2023-07-02T13:11:46;8.43;;;6.07;;
24325;SDS011;12448;45.532;5.290;2023-07-02T13:14:12;10.00;;;5.80;;
24325;SDS011;12448;45.532;5.290;2023-07-02T13:16:37;7.63;;;5.82;;
24325;SDS011;12448;45.532;5.290;2023-07-02T13:19:03;9.30;;;5.95;;
24325;SDS011;12448;45.532;5.290;2023-07-02T13:21:28;8.45;;;5.65;;
24325;SDS011;12448;45.532;5.290;2023-07-02T13:23:54;9.75;;;6.18;;
24325;SDS011;12448;45.532;5.290;2023-07-02T13:26:20;8.75;;;5.85;;
24325;SDS011;12448;45.532;5.290;2023-07-02T13:28:45;8.88;;;5.15;;
24325;SDS011;12448;45.532;5.290;2023-07-02T13:31:13;9.40;;;5.60;;
24325;SDS011;12448;45.532;5.290;2023-07-02T13:33:39;7.55;;;5.65;;
24325;SDS011;12448;45.532;5.290;2023-07-02T13:36:05;9.32;;;6.43;;
24325;SDS011;12448;45.532;5.290;2023-07-02T13:38:31;8.57;;;6.15;;
24325;SDS011;12448;45.532;5.290;2023-07-02T13:40:57;9.75;;;7.18;;
24325;SDS011;12448;45.532;5.290;2023-07-02T13:43:23;9.43;;;7.07;;
24325;SDS011;12448;45.532;5.290;2023-07-02T13:45:49;13.63;;;8.27;;
24325;SDS011;12448;45.532;5.290;2023-07-02T13:48:15;14.40;;;8.35;;
24325;SDS011;12448;45.532;5.290;2023-07-02T13:50:41;18.42;;;8.75;;
24325;SDS011;12448;45.532;5.290;2023-07-02T13:53:07;19.55;;;10.05;;
24325;SDS011;12448;45.532;5.290;2023-07-02T13:55:33;17.73;;;9.88;;
24325;SDS011;12448;45.532;5.290;2023-07-02T13:57:59;18.40;;;10.35;;
24325;SDS011;12448;45.532;5.290;2023-07-02T14:00:28;17.10;;;10.25;;
24325;SDS011;12448;45.532;5.290;2023-07-02T14:02:54;16.70;;;9.50;;
24325;SDS011;12448;45.532;5.290;2023-07-02T14:05:20;17.23;;;10.07;;
24325;SDS011;12448;45.532;5.290;2023-07-02T14:07:45;17.85;;;10.02;;
24325;SDS011;12448;45.532;5.290;2023-07-02T14:10:12;15.93;;;9.82;;
24325;SDS011;12448;45.532;5.290;2023-07-02T14:12:38;14.68;;;8.27;;
24325;SDS011;12448;45.532;5.290;2023-07-02T14:15:05;13.98;;;8.93;;
24325;SDS011;12448;45.532;5.290;2023-07-02T14:17:31;14.82;;;9.13;;
24325;SDS011;12448;45.532;5.290;2023-07-02T14:19:57;15.38;;;9.48;;
24325;SDS011;12448;45.532;5.290;2023-07-02T14:22:23;14.88;;;9.30;;
24325;SDS011;12448;45.532;5.290;2023-07-02T14:24:48;14.48;;;9.48;;
24325;SDS011;12448;45.532;5.290;2023-07-02T14:27:14;16.73;;;10.00;;
24325;SDS011;12448;45.532;5.290;2023-07-02T14:29:40;18.38;;;10.32;;
24325;SDS011;12448;45.532;5.290;2023-07-02T14:32:06;17.40;;;10.18;;
24325;SDS011;12448;45.532;5.290;2023-07-02T14:34:32;16.55;;;9.82;;
24325;SDS011;12448;45.532;5.290;2023-07-02T14:36:58;18.33;;;10.32;;
24325;SDS011;12448;45.532;5.290;2023-07-02T14:39:23;15.63;;;9.00;;
24325;SDS011;12448;45.532;5.290;2023-07-02T14:41:49;14.27;;;8.85;;
24325;SDS011;12448;45.532;5.290;2023-07-02T14:44:15;15.27;;;8.73;;
24325;SDS011;12448;45.532;5.290;2023-07-02T14:46:41;14.82;;;9.05;;
24325;SDS011;12448;45.532;5.290;2023-07-02T14:49:07;11.75;;;8.23;;
24325;SDS011;12448;45.532;5.290;2023-07-02T14:51:33;14.43;;;9.25;;
24325;SDS011;12448;45.532;5.290;2023-07-02T14:53:59;13.55;;;8.63;;
24325;SDS011;12448;45.532;5.290;2023-07-02T14:56:28;17.52;;;10.10;;
24325;SDS011;12448;45.532;5.290;2023-07-02T14:58:57;14.93;;;9.80;;
24325;SDS011;12448;45.532;5.290;2023-07-02T15:01:22;14.43;;;8.93;;
24325;SDS011;12448;45.532;5.290;2023-07-02T15:03:48;14.75;;;8.13;;
24325;SDS011;12448;45.532;5.290;2023-07-02T15:06:14;13.65;;;8.35;;
24325;SDS011;12448;45.532;5.290;2023-07-02T15:08:42;12.50;;;8.05;;
24325;SDS011;12448;45.532;5.290;2023-07-02T15:11:08;11.05;;;7.63;;
24325;SDS011;12448;45.532;5.290;2023-07-02T15:13:35;11.15;;;7.03;;
24325;SDS011;12448;45.532;5.290;2023-07-02T15:16:02;13.15;;;7.18;;
24325;SDS011;12448;45.532;5.290;2023-07-02T15:18:28;12.55;;;7.15;;